Time;durP1;ratioP1;P1;durP2;ratioP2;P2;SDS_P1;SDS_P2;PMS_P1;PMS_P2;Temp;Humidity;BMP_temperature;BMP_pressure;BME280_temperature;BME280_humidity;BME280_pressure;Samples;Min_cycle;Max_cycle;Signal;HPM_P1;HPM_P2
2020/12/20 00:01:15;;;;;;;0.40;0.40;;;8.20;99.90;;;;;;5043998;28;20226;-70
2020/12/20 00:03:41;;;;;;;0.30;0.30;;;8.20;99.90;;;;;;5033247;28;20226;-69
2020/12/20 00:06:09;;;;;;;0.30;0.30;;;8.20;99.90;;;;;;5033141;28;20252;-69
2020/12/20 00:08:35;;;;;;;0.30;0.30;;;8.20;99.90;;;;;;5033578;28;20171;-69
2020/12/20 00:11:01;;;;;;;0.60;0.50;;;8.20;99.90;;;;;;5032623;28;20266;-69
2020/12/20 00:13:26;;;;;;;0.40;0.40;;;8.20;99.90;;;;;;5033551;28;20184;-70
2020/12/20 00:15:52;;;;;;;0.63;0.60;;;8.20;99.90;;;;;;5032938;28;20567;-70
2020/12/20 00:18:17;;;;;;;0.50;0.50;;;8.20;99.90;;;;;;5033366;28;20257;-70
2020/12/20 00:20:43;;;;;;;0.30;0.30;;;8.20;99.90;;;;;;5039441;28;20233;-70
2020/12/20 00:23:09;;;;;;;0.40;0.40;;;8.20;99.90;;;;;;5033207;28;20207;-70
2020/12/20 00:25:34;;;;;;;0.30;0.30;;;8.20;99.90;;;;;;5032949;28;20166;-70
2020/12/20 00:28:00;;;;;;;0.30;0.30;;;8.20;99.90;;;;;;5033164;28;20169;-70
2020/12/20 00:30:26;;;;;;;0.50;0.50;;;8.20;99.90;;;;;;5036874;28;20184;-69
2020/12/20 00:32:51;;;;;;;0.43;0.43;;;8.20;99.90;;;;;;5033044;28;20186;-68
2020/12/20 00:35:17;;;;;;;0.33;0.33;;;8.30;99.90;;;;;;5032903;28;20178;-69
2020/12/20 00:37:43;;;;;;;0.30;0.20;;;8.30;99.90;;;;;;5032998;28;20252;-69
2020/12/20 00:40:09;;;;;;;0.30;0.30;;;8.20;99.90;;;;;;5032392;28;20960;-68
2020/12/20 00:42:34;;;;;;;0.40;0.40;;;8.30;99.90;;;;;;5031872;28;20280;-70
2020/12/20 00:45:00;;;;;;;0.57;0.57;;;8.20;99.90;;;;;;5042300;28;20169;-70
2020/12/20 00:47:26;;;;;;;0.40;0.40;;;8.30;99.90;;;;;;5032812;28;20725;-70
2020/12/20 00:49:51;;;;;;;0.40;0.40;;;8.30;99.90;;;;;;5032604;28;20634;-70
2020/12/20 00:52:17;;;;;;;0.50;0.50;;;8.30;99.90;;;;;;5031341;28;20223;-70
2020/12/20 00:54:43;;;;;;;0.30;0.30;;;8.30;99.90;;;;;;5035597;28;20189;-70
2020/12/20 00:57:09;;;;;;;0.30;0.30;;;8.20;99.90;;;;;;5037087;28;20190;-70
2020/12/20 00:59:35;;;;;;;0.30;0.30;;;8.30;99.90;;;;;;5036697;28;20186;-70
2020/12/20 01:02:01;;;;;;;0.30;0.30;;;8.20;99.90;;;;;;5036309;28;20293;-70
2020/12/20 01:04:26;;;;;;;0.30;0.30;;;8.20;99.90;;;;;;5036631;28;20260;-69
2020/12/20 01:06:56;;;;;;;0.30;0.30;;;8.20;99.90;;;;;;5036942;28;20614;-70
2020/12/20 01:09:22;;;;;;;0.30;0.20;;;8.20;99.90;;;;;;5036392;28;20169;-70
2020/12/20 01:11:48;;;;;;;0.30;0.30;;;8.30;99.90;;;;;;5034937;28;20243;-70
2020/12/20 01:14:14;;;;;;;0.30;0.30;;;8.20;99.90;;;;;;5046182;28;20430;-69
2020/12/20 01:16:40;;;;;;;0.40;0.40;;;8.20;99.90;;;;;;5036731;28;20181;-70
2020/12/20 01:19:05;;;;;;;0.30;0.30;;;8.20;99.90;;;;;;5035301;28;20258;-69
2020/12/20 01:21:34;;;;;;;0.30;0.20;;;8.20;99.90;;;;;;5035928;28;20204;-70
2020/12/20 01:24:00;;;;;;;0.30;0.30;;;8.20;99.90;;;;;;5047738;28;20264;-70
2020/12/20 01:26:28;;;;;;;0.30;0.30;;;8.20;99.90;;;;;;5035265;28;20216;-69
2020/12/20 01:28:55;;;;;;;0.30;0.30;;;8.20;99.90;;;;;;5036383;28;20165;-69
2020/12/20 01:31:21;;;;;;;0.80;0.60;;;8.20;99.90;;;;;;5041193;28;20204;-69
2020/12/20 01:33:46;;;;;;;0.30;0.20;;;8.20;99.90;;;;;;5055697;28;20168;-71
2020/12/20 01:36:13;;;;;;;0.40;0.40;;;8.20;99.90;;;;;;5035947;28;20266;-69
2020/12/20 01:38:40;;;;;;;2.67;1.20;;;8.20;99.90;;;;;;5036331;28;20574;-69
2020/12/20 01:41:06;;;;;;;0.30;0.30;;;8.20;99.90;;;;;;5035583;28;20205;-69
2020/12/20 01:43:51;;;;;;;1.02;0.65;;;8.30;99.90;;;;;;5036513;28;20236;-69
2020/12/20 01:46:19;;;;;;;0.30;0.30;;;8.30;99.90;;;;;;5035033;28;20173;-69
2020/12/20 01:48:46;;;;;;;2.78;2.58;;;8.20;99.90;;;;;;5036080;28;20163;-70
2020/12/20 01:51:12;;;;;;;0.30;0.30;;;8.20;99.90;;;;;;5035351;28;20185;-70
2020/12/20 01:53:39;;;;;;;0.73;0.73;;;8.20;99.90;;;;;;5035748;28;20189;-70
2020/12/20 01:56:05;;;;;;;0.73;0.73;;;8.20;99.90;;;;;;5036517;28;20204;-69
2020/12/20 01:58:36;;;;;;;0.30;0.30;;;8.20;99.90;;;;;;5035796;28;20253;-70
2020/12/20 02:01:06;;;;;;;0.30;0.20;;;8.10;99.90;;;;;;5033693;28;20205;-69
2020/12/20 02:03:32;;;;;;;0.30;0.30;;;8.10;99.90;;;;;;5036007;28;20161;-69
2020/12/20 02:05:58;;;;;;;0.30;0.30;;;8.10;99.90;;;;;;5035457;28;20177;-69
2020/12/20 02:08:27;;;;;;;0.30;0.30;;;8.20;99.90;;;;;;5035816;28;20552;-70
2020/12/20 02:11:22;;;;;;;0.30;0.30;;;8.20;99.90;;;;;;5034987;28;20716;-69
2020/12/20 02:13:50;;;;;;;0.40;0.40;;;8.20;99.90;;;;;;5033970;28;20247;-70
2020/12/20 02:16:21;;;;;;;0.30;0.20;;;8.20;99.90;;;;;;5035387;28;20192;-70
2020/12/20 02:18:48;;;;;;;0.30;0.30;;;8.30;99.90;;;;;;5035282;28;20276;-70
2020/12/20 02:21:23;;;;;;;0.30;0.20;;;8.30;99.90;;;;;;5034834;28;20608;-70
2020/12/20 02:23:50;;;;;;;0.40;0.40;;;8.30;99.90;;;;;;5035638;28;20541;-72
2020/12/20 02:26:26;;;;;;;0.40;0.40;;;8.30;99.90;;;;;;5038025;28;20176;-70
2020/12/20 02:28:53;;;;;;;0.30;0.30;;;8.20;99.90;;;;;;5034034;28;20205;-70
2020/12/20 02:31:19;;;;;;;0.50;0.50;;;8.20;99.90;;;;;;5034390;28;20208;-70
2020/12/20 02:33:45;;;;;;;0.30;0.30;;;8.20;99.90;;;;;;5034933;28;20170;-70
2020/12/20 02:36:12;;;;;;;0.40;0.40;;;8.10;99.90;;;;;;5034880;28;20203;-69
2020/12/20 02:38:38;;;;;;;0.40;0.40;;;8.10;99.90;;;;;;5034998;28;20432;-70
2020/12/20 02:41:03;;;;;;;0.30;0.30;;;8.00;99.90;;;;;;5034277;28;20671;-70
2020/12/20 02:43:29;;;;;;;0.30;0.30;;;8.00;99.90;;;;;;5034694;28;20183;-70
2020/12/20 02:45:55;;;;;;;0.30;0.30;;;7.90;99.90;;;;;;5035058;28;20170;-70
2020/12/20 02:48:21;;;;;;;0.47;0.47;;;7.90;99.90;;;;;;5034560;28;20604;-69
2020/12/20 02:50:47;;;;;;;1.23;1.13;;;7.90;99.90;;;;;;5034478;28;20283;-70
2020/12/20 02:53:13;;;;;;;0.50;0.50;;;7.90;99.90;;;;;;5034519;28;20263;-69
2020/12/20 02:55:38;;;;;;;3.53;2.40;;;7.90;99.90;;;;;;5034470;28;20573;-70
2020/12/20 02:58:04;;;;;;;0.30;0.30;;;7.90;99.90;;;;;;5033229;28;20180;-70
2020/12/20 03:00:31;;;;;;;0.40;0.40;;;7.90;99.90;;;;;;5032944;28;20562;-70
2020/12/20 03:02:57;;;;;;;0.30;0.30;;;7.90;99.90;;;;;;5034565;28;20717;-70
2020/12/20 03:05:24;;;;;;;0.40;0.40;;;7.90;99.90;;;;;;5034376;28;20239;-69
2020/12/20 03:07:49;;;;;;;0.40;0.40;;;7.90;99.90;;;;;;5033534;28;20181;-69
2020/12/20 03:10:17;;;;;;;0.30;0.30;;;7.90;99.90;;;;;;5035699;28;20168;-70
2020/12/20 03:12:44;;;;;;;0.30;0.30;;;7.90;99.90;;;;;;5034494;28;20249;-69
2020/12/20 03:15:10;;;;;;;0.30;0.30;;;7.90;99.90;;;;;;5034013;28;20198;-69
2020/12/20 03:17:36;;;;;;;0.30;0.30;;;7.90;99.90;;;;;;5033803;28;20188;-70
2020/12/20 03:20:04;;;;;;;0.70;0.70;;;7.90;99.90;;;;;;5033594;28;20180;-69
2020/12/20 03:22:29;;;;;;;0.30;0.30;;;7.90;99.90;;;;;;5034167;28;20198;-69
2020/12/20 03:24:55;;;;;;;0.30;0.27;;;7.90;99.90;;;;;;5042336;28;20301;-68
2020/12/20 03:27:21;;;;;;;0.50;0.50;;;7.90;99.90;;;;;;5049144;28;20510;-69
2020/12/20 03:29:46;;;;;;;0.30;0.30;;;7.90;99.90;;;;;;5049058;28;20181;-69
2020/12/20 03:32:12;;;;;;;1.80;1.70;;;8.00;99.90;;;;;;5050926;28;20207;-70
2020/12/20 03:34:38;;;;;;;0.30;0.30;;;8.00;99.90;;;;;;5034028;28;20173;-68
2020/12/20 03:37:03;;;;;;;0.40;0.37;;;8.00;99.90;;;;;;5033924;28;20234;-70
2020/12/20 03:39:29;;;;;;;0.30;0.30;;;8.00;99.90;;;;;;5034105;28;20634;-69
2020/12/20 03:41:55;;;;;;;0.30;0.30;;;8.00;99.90;;;;;;5032068;28;20238;-70
2020/12/20 03:44:21;;;;;;;0.30;0.30;;;8.00;99.90;;;;;;5052378;28;20420;-69
2020/12/20 03:46:47;;;;;;;0.50;0.50;;;8.00;99.90;;;;;;5052477;28;20229;-69
2020/12/20 03:49:12;;;;;;;0.83;0.83;;;8.00;99.90;;;;;;5034922;28;20176;-69
2020/12/20 03:51:38;;;;;;;2.00;0.70;;;8.00;99.90;;;;;;5033146;28;20204;-69
2020/12/20 03:54:04;;;;;;;0.60;0.60;;;8.00;99.90;;;;;;5033550;28;20193;-70
2020/12/20 03:56:30;;;;;;;0.40;0.40;;;8.00;99.90;;;;;;5033851;28;20664;-69
2020/12/20 03:58:56;;;;;;;0.40;0.40;;;8.00;99.90;;;;;;5033398;28;20541;-69
2020/12/20 04:01:21;;;;;;;0.30;0.30;;;8.00;99.90;;;;;;5033257;28;20303;-68
2020/12/20 04:03:47;;;;;;;0.30;0.30;;;8.00;99.90;;;;;;5033321;28;20424;-68
2020/12/20 04:06:13;;;;;;;0.57;0.57;;;8.00;99.90;;;;;;5033798;28;20176;-69
2020/12/20 04:08:38;;;;;;;0.30;0.30;;;8.00;99.90;;;;;;5033388;28;20196;-69
2020/12/20 04:11:04;;;;;;;0.30;0.30;;;8.00;99.90;;;;;;5033364;28;20720;-70
2020/12/20 04:13:32;;;;;;;0.70;0.70;;;8.00;99.90;;;;;;5033104;28;20176;-69
2020/12/20 04:16:06;;;;;;;2.90;2.70;;;8.00;99.90;;;;;;5033233;28;20182;-69
2020/12/20 04:18:32;;;;;;;0.40;0.40;;;8.00;99.90;;;;;;5033241;28;20181;-70
2020/12/20 04:20:57;;;;;;;0.30;0.20;;;8.00;99.90;;;;;;5033080;28;20667;-69
2020/12/20 04:23:23;;;;;;;0.30;0.30;;;8.00;99.90;;;;;;5033170;28;20800;-70
2020/12/20 04:25:49;;;;;;;0.30;0.30;;;8.00;99.90;;;;;;5033160;28;20261;-69
2020/12/20 04:28:14;;;;;;;0.30;0.20;;;7.90;99.90;;;;;;5032189;28;20427;-70
2020/12/20 04:30:40;;;;;;;0.77;0.77;;;7.90;99.90;;;;;;5033291;28;20209;-69
2020/12/20 04:33:05;;;;;;;0.30;0.30;;;7.90;99.90;;;;;;5033007;28;20673;-69
2020/12/20 04:35:31;;;;;;;0.30;0.30;;;7.90;99.90;;;;;;5033498;28;20258;-69
2020/12/20 04:37:57;;;;;;;0.40;0.40;;;7.90;99.90;;;;;;5033154;28;20177;-69
2020/12/20 04:40:26;;;;;;;0.30;0.30;;;7.90;99.90;;;;;;5032755;28;20207;-69
2020/12/20 04:43:05;;;;;;;0.30;0.30;;;7.90;99.90;;;;;;5033019;28;20601;-69
2020/12/20 04:45:32;;;;;;;0.40;0.40;;;7.90;99.90;;;;;;5040563;28;20207;-69
2020/12/20 04:47:58;;;;;;;0.40;0.40;;;7.90;99.90;;;;;;5032948;28;20231;-69
2020/12/20 04:50:25;;;;;;;0.40;0.40;;;7.90;99.90;;;;;;5032824;28;20176;-70
2020/12/20 04:52:54;;;;;;;0.40;0.40;;;7.90;99.90;;;;;;5032665;28;20206;-69
2020/12/20 04:55:21;;;;;;;2.78;0.73;;;7.90;99.90;;;;;;5032921;28;20210;-69
2020/12/20 04:57:50;;;;;;;0.35;0.35;;;7.90;99.90;;;;;;5032692;28;20272;-69
2020/12/20 05:00:16;;;;;;;0.52;0.52;;;7.90;99.90;;;;;;5032420;28;20649;-69
2020/12/20 05:02:42;;;;;;;0.30;0.25;;;7.90;99.90;;;;;;5032975;28;20224;-69
2020/12/20 05:05:08;;;;;;;0.70;0.70;;;8.00;99.90;;;;;;5032854;28;20199;-69
2020/12/20 05:07:34;;;;;;;0.70;0.70;;;8.00;99.90;;;;;;5033220;28;20655;-69
2020/12/20 05:10:01;;;;;;;1.02;0.80;;;8.00;99.90;;;;;;5032556;28;20177;-69
2020/12/20 05:12:31;;;;;;;0.30;0.30;;;8.00;99.90;;;;;;5033044;28;20238;-69
2020/12/20 05:14:59;;;;;;;0.30;0.30;;;8.00;99.90;;;;;;5033370;28;20173;-69
2020/12/20 05:17:25;;;;;;;0.30;0.20;;;8.00;99.90;;;;;;5032945;28;20175;-69
2020/12/20 05:19:52;;;;;;;0.30;0.20;;;8.00;99.90;;;;;;5032023;28;20568;-70
2020/12/20 05:22:22;;;;;;;0.52;0.50;;;8.00;99.90;;;;;;5032845;28;20205;-69
2020/12/20 05:24:50;;;;;;;0.30;0.30;;;8.00;99.90;;;;;;5032630;28;20171;-69
2020/12/20 05:27:23;;;;;;;0.70;0.70;;;8.00;99.90;;;;;;5033196;28;20637;-70
2020/12/20 05:29:50;;;;;;;0.30;0.30;;;8.00;99.90;;;;;;5026386;28;20181;-69
2020/12/20 05:32:30;;;;;;;0.30;0.20;;;7.90;99.90;;;;;;5032851;28;20186;-69
2020/12/20 05:35:05;;;;;;;1.58;0.75;;;7.90;99.90;;;;;;5032361;28;20208;-69
2020/12/20 05:37:33;;;;;;;0.30;0.30;;;7.90;99.90;;;;;;5032925;28;20180;-70
2020/12/20 05:40:04;;;;;;;0.30;0.30;;;7.90;99.90;;;;;;5033551;28;20184;-68
2020/12/20 05:42:30;;;;;;;0.95;0.95;;;7.90;99.90;;;;;;5040830;28;20186;-67
2020/12/20 05:45:06;;;;;;;0.40;0.40;;;7.90;99.90;;;;;;5041663;28;20579;-69
2020/12/20 05:47:33;;;;;;;0.57;0.40;;;8.00;99.90;;;;;;5036391;28;20526;-68
2020/12/20 05:49:58;;;;;;;0.63;0.63;;;7.90;99.90;;;;;;5035580;28;20188;-69
2020/12/20 05:52:24;;;;;;;0.63;0.60;;;7.90;99.90;;;;;;5036106;28;20444;-69
2020/12/20 05:54:50;;;;;;;0.50;0.50;;;7.80;99.90;;;;;;5035595;28;20241;-70
2020/12/20 05:57:22;;;;;;;0.40;0.40;;;7.80;99.90;;;;;;5041102;28;20512;-68
2020/12/20 05:59:53;;;;;;;0.77;0.77;;;7.70;99.90;;;;;;5049409;28;20177;-69
2020/12/20 06:02:19;;;;;;;0.30;0.20;;;7.70;99.90;;;;;;5055821;28;20201;-69
2020/12/20 06:04:46;;;;;;;0.40;0.40;;;7.70;99.90;;;;;;5041903;28;20172;-69
2020/12/20 06:07:13;;;;;;;0.30;0.20;;;7.70;99.90;;;;;;5017638;28;20534;-70
2020/12/20 06:09:50;;;;;;;0.30;0.30;;;7.70;99.90;;;;;;5035110;28;20187;-70
2020/12/20 06:12:24;;;;;;;0.30;0.20;;;7.80;99.90;;;;;;5042925;28;20243;-68
2020/12/20 06:14:51;;;;;;;0.30;0.30;;;7.80;99.90;;;;;;5041963;28;20708;-69
2020/12/20 06:17:22;;;;;;;0.30;0.30;;;7.80;99.90;;;;;;5035644;28;20176;-69
2020/12/20 06:20:03;;;;;;;0.30;0.30;;;7.80;99.90;;;;;;5034896;28;20183;-70
2020/12/20 06:22:29;;;;;;;0.30;0.20;;;7.80;99.90;;;;;;5033990;28;20241;-71
2020/12/20 06:24:58;;;;;;;0.95;0.85;;;7.80;99.90;;;;;;5033781;28;20178;-68
2020/12/20 06:27:26;;;;;;;0.70;0.70;;;7.80;99.90;;;;;;5035174;28;20183;-69
2020/12/20 06:30:19;;;;;;;1.17;1.05;;;7.80;99.90;;;;;;5033414;28;20204;-70
2020/12/20 06:32:46;;;;;;;0.30;0.22;;;7.80;99.90;;;;;;5033251;28;20213;-69
2020/12/20 06:35:18;;;;;;;0.30;0.20;;;7.80;99.90;;;;;;5035261;28;20174;-68
2020/12/20 06:37:45;;;;;;;0.30;0.30;;;7.70;99.90;;;;;;5034895;28;20261;-69
2020/12/20 06:40:12;;;;;;;0.40;0.40;;;7.80;99.90;;;;;;5033417;28;20176;-68
2020/12/20 06:42:40;;;;;;;0.30;0.30;;;7.80;99.90;;;;;;5034876;28;20196;-69
2020/12/20 06:45:18;;;;;;;0.30;0.30;;;7.80;99.90;;;;;;5033736;28;20220;-69
2020/12/20 06:47:45;;;;;;;0.30;0.30;;;7.80;99.90;;;;;;5034777;28;20624;-70
2020/12/20 06:50:11;;;;;;;0.30;0.30;;;7.70;99.90;;;;;;5034471;28;20557;-69
2020/12/20 06:52:49;;;;;;;0.30;0.27;;;7.70;99.90;;;;;;5033557;28;20215;-70
2020/12/20 06:55:18;;;;;;;0.57;0.57;;;7.70;99.90;;;;;;5034903;28;20924;-69
2020/12/20 06:58:02;;;;;;;0.30;0.30;;;7.70;99.90;;;;;;5034609;28;20586;-70
2020/12/20 07:00:42;;;;;;;0.30;0.30;;;7.70;99.90;;;;;;5034025;28;20211;-70
2020/12/20 07:03:37;;;;;;;0.30;0.20;;;7.80;99.90;;;;;;5034566;28;20679;-68
2020/12/20 07:06:14;;;;;;;0.30;0.30;;;7.80;99.90;;;;;;5036429;28;20192;-70
2020/12/20 07:08:40;;;;;;;0.30;0.30;;;7.90;99.90;;;;;;5034114;28;20169;-70
2020/12/20 07:11:26;;;;;;;0.45;0.45;;;7.90;99.90;;;;;;5033093;28;20177;-69
2020/12/20 07:13:54;;;;;;;0.32;0.32;;;7.80;99.90;;;;;;5034114;28;20707;-70
2020/12/20 07:16:25;;;;;;;0.30;0.25;;;7.80;99.90;;;;;;5034306;28;20174;-69
2020/12/20 07:18:53;;;;;;;0.30;0.20;;;7.70;99.90;;;;;;5033721;28;20210;-70
2020/12/20 07:21:19;;;;;;;0.30;0.30;;;7.70;99.90;;;;;;5013959;28;20215;-69
2020/12/20 07:23:52;;;;;;;0.30;0.30;;;7.70;99.90;;;;;;5016818;28;20174;-68
2020/12/20 07:26:18;;;;;;;0.30;0.30;;;7.70;99.90;;;;;;5033219;28;20180;-70
2020/12/20 07:28:44;;;;;;;0.30;0.30;;;7.70;99.90;;;;;;5034007;28;20614;-70
2020/12/20 07:31:13;;;;;;;0.30;0.30;;;7.60;99.90;;;;;;5033345;28;20243;-70
2020/12/20 07:33:39;;;;;;;0.30;0.30;;;7.50;99.90;;;;;;5033634;28;20178;-70
2020/12/20 07:36:08;;;;;;;0.30;0.30;;;7.50;99.90;;;;;;5033717;28;20186;-70
2020/12/20 07:38:34;;;;;;;0.30;0.30;;;7.50;99.90;;;;;;5034023;28;20251;-70
2020/12/20 07:41:06;;;;;;;0.30;0.30;;;7.50;99.90;;;;;;5032888;28;20322;-70
2020/12/20 07:43:32;;;;;;;0.30;0.30;;;7.60;99.90;;;;;;5046501;28;20799;-69
2020/12/20 07:45:58;;;;;;;0.30;0.30;;;7.60;99.90;;;;;;5035506;28;20195;-68
2020/12/20 07:48:25;;;;;;;0.40;0.40;;;7.70;99.90;;;;;;5033628;28;20255;-70
2020/12/20 07:50:51;;;;;;;0.50;0.50;;;7.70;99.90;;;;;;5032958;28;20567;-70
2020/12/20 07:53:18;;;;;;;0.30;0.30;;;7.70;99.90;;;;;;5033550;28;20203;-68
2020/12/20 07:55:48;;;;;;;1.15;0.63;;;7.70;99.90;;;;;;5032131;28;20593;-69
2020/12/20 07:58:17;;;;;;;0.50;0.50;;;7.70;99.90;;;;;;5033823;28;20181;-70
2020/12/20 08:00:44;;;;;;;0.30;0.20;;;7.70;99.90;;;;;;5032543;28;20207;-70
2020/12/20 08:03:13;;;;;;;0.30;0.30;;;7.80;99.90;;;;;;5033164;28;20186;-69
2020/12/20 08:05:39;;;;;;;1.40;0.98;;;7.90;99.90;;;;;;5032976;28;20177;-70
2020/12/20 08:08:06;;;;;;;0.83;0.83;;;8.00;99.90;;;;;;5033284;28;20667;-68
2020/12/20 08:10:35;;;;;;;0.40;0.40;;;8.00;99.90;;;;;;5014416;28;20463;-69
2020/12/20 08:13:02;;;;;;;0.57;0.57;;;8.00;99.90;;;;;;5033310;28;20563;-69
2020/12/20 08:15:27;;;;;;;0.90;0.85;;;8.10;99.90;;;;;;5031270;28;20630;-68
2020/12/20 08:17:53;;;;;;;0.50;0.50;;;8.20;99.90;;;;;;5033372;28;20247;-70
2020/12/20 08:20:19;;;;;;;0.30;0.30;;;8.30;99.90;;;;;;5038543;28;20200;-67
2020/12/20 08:22:49;;;;;;;0.70;0.70;;;8.40;99.90;;;;;;5053270;28;20652;-65
2020/12/20 08:25:16;;;;;;;0.50;0.50;;;8.40;99.90;;;;;;5039081;28;20185;-66
2020/12/20 08:27:45;;;;;;;0.30;0.30;;;8.50;99.90;;;;;;5032833;28;20161;-67
2020/12/20 08:30:11;;;;;;;0.30;0.30;;;8.70;99.90;;;;;;5031056;28;20640;-68
2020/12/20 08:32:46;;;;;;;0.30;0.30;;;8.90;99.90;;;;;;5032254;28;20197;-69
2020/12/20 08:35:15;;;;;;;0.82;0.82;;;9.20;99.90;;;;;;5032350;28;20166;-68
2020/12/20 08:37:45;;;;;;;0.45;0.45;;;9.50;99.90;;;;;;5030987;28;20280;-66
2020/12/20 08:40:15;;;;;;;0.35;0.35;;;9.80;99.90;;;;;;5030609;28;20178;-69
2020/12/20 08:42:42;;;;;;;0.30;0.20;;;10.00;99.90;;;;;;5032561;28;20288;-67
2020/12/20 08:45:12;;;;;;;1.73;1.60;;;10.20;99.90;;;;;;5037117;28;20289;-69
2020/12/20 08:47:38;;;;;;;0.30;0.30;;;10.50;99.90;;;;;;5033072;28;20174;-67
2020/12/20 08:50:04;;;;;;;0.45;0.45;;;10.90;99.90;;;;;;5032229;28;20244;-68
2020/12/20 08:52:31;;;;;;;0.30;0.30;;;11.10;99.90;;;;;;5036642;28;20211;-67
2020/12/20 08:54:58;;;;;;;0.30;0.20;;;11.30;99.30;;;;;;5047103;28;20903;-66
2020/12/20 08:57:25;;;;;;;0.30;0.28;;;11.30;98.80;;;;;;5046623;28;20633;-67
2020/12/20 08:59:51;;;;;;;0.30;0.30;;;11.30;98.60;;;;;;5029113;28;20177;-66
2020/12/20 09:02:22;;;;;;;0.40;0.40;;;11.10;98.70;;;;;;5031854;28;20449;-67
2020/12/20 09:04:55;;;;;;;1.17;1.10;;;10.90;98.70;;;;;;5030059;28;20421;-68
2020/12/20 09:07:40;;;;;;;0.30;0.30;;;10.70;99.10;;;;;;5030119;28;20170;-65
2020/12/20 09:10:11;;;;;;;0.30;0.30;;;10.50;99.20;;;;;;5029735;28;20178;-65
2020/12/20 09:12:58;;;;;;;0.60;0.50;;;10.30;99.50;;;;;;5031658;28;20274;-67
2020/12/20 09:15:35;;;;;;;0.30;0.30;;;10.20;99.80;;;;;;5032671;28;20206;-68
2020/12/20 09:18:14;;;;;;;0.30;0.30;;;10.20;99.90;;;;;;5035332;28;20181;-69
2020/12/20 09:20:42;;;;;;;0.98;0.98;;;10.10;99.90;;;;;;5033367;28;20289;-66
2020/12/20 09:23:20;;;;;;;0.30;0.30;;;10.20;99.90;;;;;;5034569;28;20196;-67
2020/12/20 09:25:47;;;;;;;1.67;0.70;;;10.50;99.90;;;;;;5031109;28;20173;-68
2020/12/20 09:28:19;;;;;;;0.50;0.43;;;10.80;99.90;;;;;;5035197;28;20182;-69
2020/12/20 09:30:49;;;;;;;0.40;0.37;;;11.30;99.80;;;;;;5035628;28;20564;-67
2020/12/20 09:33:27;;;;;;;0.30;0.30;;;11.80;99.60;;;;;;5038244;28;20443;-67
2020/12/20 09:35:55;;;;;;;1.07;1.07;;;12.50;98.50;;;;;;5048291;28;20472;-70
2020/12/20 09:38:23;;;;;;;0.37;0.37;;;13.20;98.20;;;;;;5034555;28;20832;-69
2020/12/20 09:40:55;;;;;;;0.30;0.20;;;13.90;96.00;;;;;;5032846;28;20510;-69
2020/12/20 09:43:21;;;;;;;0.30;0.20;;;14.30;95.20;;;;;;5034551;28;20471;-68
2020/12/20 09:45:47;;;;;;;0.57;0.57;;;14.60;94.40;;;;;;5034476;28;20428;-71
2020/12/20 09:48:13;;;;;;;1.27;1.17;;;14.90;93.90;;;;;;5035769;28;20185;-75
2020/12/20 09:50:39;;;;;;;0.73;0.73;;;15.10;93.30;;;;;;5036127;28;20188;-70
2020/12/20 09:53:04;;;;;;;2.30;1.33;;;15.30;92.90;;;;;;5047623;28;20955;-70
2020/12/20 09:55:31;;;;;;;2.37;0.50;;;15.60;92.60;;;;;;5034278;28;20204;-70
2020/12/20 09:57:58;;;;;;;1.13;1.03;;;15.90;91.50;;;;;;5035415;28;20183;-74
2020/12/20 10:00:24;;;;;;;0.50;0.50;;;15.80;91.20;;;;;;5034349;28;20461;-72
2020/12/20 10:02:50;;;;;;;1.80;0.50;;;15.70;91.30;;;;;;5033576;28;20443;-73
2020/12/20 10:05:16;;;;;;;0.60;0.60;;;15.50;91.10;;;;;;5033853;28;20510;-72
2020/12/20 10:07:41;;;;;;;0.30;0.20;;;15.20;91.40;;;;;;5034208;28;20196;-73
2020/12/20 10:10:07;;;;;;;0.30;0.30;;;14.90;91.70;;;;;;5033226;28;20181;-73
2020/12/20 10:12:35;;;;;;;0.90;0.90;;;14.80;92.10;;;;;;5035222;28;20197;-70
2020/12/20 10:15:00;;;;;;;0.97;0.97;;;14.50;92.00;;;;;;5034924;28;20779;-72
2020/12/20 10:17:26;;;;;;;0.40;0.40;;;14.20;92.50;;;;;;5035026;28;20468;-71
2020/12/20 10:19:53;;;;;;;0.30;0.30;;;13.80;92.90;;;;;;5034775;28;20173;-72
2020/12/20 10:22:21;;;;;;;0.40;0.40;;;13.50;93.70;;;;;;5035214;28;20244;-70
2020/12/20 10:24:48;;;;;;;0.30;0.23;;;13.30;93.80;;;;;;5040598;28;20428;-73
2020/12/20 10:27:14;;;;;;;0.30;0.30;;;13.20;94.20;;;;;;5033578;28;20424;-73
2020/12/20 10:29:40;;;;;;;0.33;0.33;;;12.90;94.60;;;;;;5034647;28;20435;-78
2020/12/20 10:32:05;;;;;;;0.30;0.20;;;12.70;95.00;;;;;;5034958;28;20251;-73
2020/12/20 10:34:31;;;;;;;0.30;0.30;;;12.50;95.30;;;;;;5034630;28;20209;-75
2020/12/20 10:36:57;;;;;;;1.77;1.67;;;12.40;95.50;;;;;;5035201;28;20183;-74
2020/12/20 10:39:22;;;;;;;0.30;0.30;;;12.30;96.00;;;;;;5034909;28;20259;-72
2020/12/20 10:41:52;;;;;;;0.70;0.70;;;12.20;96.20;;;;;;5032393;28;20250;-72
2020/12/20 10:44:20;;;;;;;0.30;0.30;;;12.20;96.00;;;;;;5033220;28;20180;-73
2020/12/20 10:46:50;;;;;;;0.30;0.30;;;12.20;95.90;;;;;;5034293;28;20423;-71
2020/12/20 10:49:16;;;;;;;0.30;0.30;;;12.10;96.60;;;;;;5034612;28;20421;-72
2020/12/20 10:51:43;;;;;;;0.50;0.50;;;11.80;97.20;;;;;;5039102;28;20973;-72
2020/12/20 10:54:08;;;;;;;0.30;0.27;;;11.70;97.60;;;;;;5041137;28;20811;-71
2020/12/20 10:56:35;;;;;;;0.30;0.20;;;11.60;97.90;;;;;;5045932;28;20441;-74
2020/12/20 10:59:11;;;;;;;0.30;0.20;;;11.50;98.10;;;;;;5034373;28;20206;-73
2020/12/20 11:01:36;;;;;;;0.50;0.50;;;11.40;98.20;;;;;;5039938;28;20459;-76
2020/12/20 11:04:02;;;;;;;1.47;0.50;;;11.40;98.50;;;;;;5039101;28;20424;-71
2020/12/20 11:06:30;;;;;;;0.97;0.83;;;11.40;98.50;;;;;;5032264;28;20281;-71
2020/12/20 11:08:56;;;;;;;0.50;0.50;;;11.40;98.60;;;;;;5038575;28;20181;-75
2020/12/20 11:11:28;;;;;;;0.30;0.30;;;11.50;98.80;;;;;;5032218;28;20207;-73
2020/12/20 11:13:54;;;;;;;0.95;0.95;;;11.50;99.20;;;;;;5030153;28;20509;-77
2020/12/20 11:16:23;;;;;;;0.30;0.20;;;11.60;99.10;;;;;;5031467;28;20273;-75
2020/12/20 11:18:49;;;;;;;0.30;0.20;;;11.60;99.10;;;;;;5032421;28;20504;-74
2020/12/20 11:21:16;;;;;;;0.67;0.67;;;11.60;99.10;;;;;;5032595;28;20547;-71
2020/12/20 11:23:43;;;;;;;0.30;0.30;;;11.50;99.30;;;;;;5032948;28;20460;-79
2020/12/20 11:26:14;;;;;;;0.30;0.20;;;11.30;99.20;;;;;;5033584;28;20559;-76
2020/12/20 11:28:41;;;;;;;1.95;1.85;;;11.40;99.20;;;;;;5035736;28;20182;-75
2020/12/20 11:31:11;;;;;;;0.45;0.45;;;11.40;99.30;;;;;;5034201;28;20182;-77
2020/12/20 11:33:37;;;;;;;1.30;1.13;;;11.40;99.10;;;;;;5034752;28;20185;-75
2020/12/20 11:36:03;;;;;;;0.30;0.20;;;11.40;99.00;;;;;;5034347;28;20183;-75
2020/12/20 11:38:29;;;;;;;0.40;0.40;;;11.50;99.20;;;;;;5031690;28;20190;-72
2020/12/20 11:40:55;;;;;;;0.70;0.70;;;11.60;99.10;;;;;;5033224;28;20206;-75
2020/12/20 11:43:21;;;;;;;0.60;0.60;;;11.60;99.10;;;;;;5033595;28;20599;-74
2020/12/20 11:45:47;;;;;;;0.30;0.20;;;11.70;98.70;;;;;;5033972;28;20178;-73
2020/12/20 11:48:14;;;;;;;0.80;0.60;;;11.80;98.40;;;;;;5042442;28;20179;-76
2020/12/20 11:50:39;;;;;;;0.53;0.53;;;11.90;98.20;;;;;;5046485;28;20175;-75
2020/12/20 11:53:05;;;;;;;0.30;0.30;;;11.90;97.80;;;;;;5037746;28;20464;-74
2020/12/20 11:55:31;;;;;;;0.30;0.30;;;11.90;97.80;;;;;;5033692;28;20202;-74
2020/12/20 11:57:57;;;;;;;0.60;0.60;;;11.90;97.80;;;;;;5033213;28;20205;-75
2020/12/20 12:00:24;;;;;;;0.63;0.63;;;11.90;97.80;;;;;;5033224;28;20557;-75
2020/12/20 12:02:53;;;;;;;0.70;0.57;;;11.80;97.90;;;;;;5033271;28;20217;-78
2020/12/20 12:05:19;;;;;;;0.30;0.20;;;11.80;98.00;;;;;;5032372;28;20173;-74
2020/12/20 12:07:46;;;;;;;1.07;1.07;;;11.80;98.30;;;;;;5033184;28;20181;-74
2020/12/20 12:10:14;;;;;;;0.30;0.30;;;11.90;97.90;;;;;;5033330;28;20404;-75
2020/12/20 12:12:43;;;;;;;0.80;0.80;;;11.90;98.00;;;;;;5033195;28;20198;-74
2020/12/20 12:15:08;;;;;;;0.40;0.40;;;11.90;97.90;;;;;;5033462;28;20201;-74
2020/12/20 12:17:34;;;;;;;2.57;0.60;;;11.80;98.00;;;;;;5034924;28;20184;-75
2020/12/20 12:20:00;;;;;;;0.30;0.30;;;11.80;98.20;;;;;;5032800;28;20181;-77
2020/12/20 12:22:25;;;;;;;0.30;0.30;;;11.70;98.30;;;;;;5032929;28;20487;-75
2020/12/20 12:24:51;;;;;;;0.30;0.20;;;11.80;98.20;;;;;;5032385;28;20216;-75
2020/12/20 12:27:17;;;;;;;0.40;0.40;;;11.90;98.20;;;;;;5031887;28;20178;-71
2020/12/20 12:29:42;;;;;;;0.30;0.30;;;11.90;98.10;;;;;;5032425;28;20249;-74
2020/12/20 12:32:08;;;;;;;0.50;0.50;;;12.00;98.20;;;;;;5032593;28;20190;-72
2020/12/20 12:34:34;;;;;;;0.30;0.20;;;12.00;98.40;;;;;;5033137;28;20254;-75
2020/12/20 12:37:03;;;;;;;0.30;0.30;;;12.00;98.40;;;;;;5036552;28;20647;-76
2020/12/20 12:39:29;;;;;;;0.30;0.30;;;12.00;98.20;;;;;;5032862;28;20262;-75
2020/12/20 12:41:56;;;;;;;0.40;0.40;;;12.00;98.30;;;;;;5031558;28;20239;-78
2020/12/20 12:44:22;;;;;;;0.30;0.20;;;12.10;98.20;;;;;;5038230;28;20540;-75
2020/12/20 12:46:49;;;;;;;0.50;0.50;;;12.00;98.50;;;;;;5052777;28;20179;-79
2020/12/20 12:49:18;;;;;;;0.50;0.40;;;12.00;98.40;;;;;;5034596;28;20253;-77
2020/12/20 12:51:43;;;;;;;0.30;0.30;;;12.00;98.20;;;;;;5035080;28;20237;-77
2020/12/20 12:54:09;;;;;;;0.30;0.30;;;12.10;98.60;;;;;;5036323;28;20468;-78
2020/12/20 12:56:35;;;;;;;0.33;0.33;;;12.00;98.90;;;;;;5037107;28;20188;-74